sensor_id;sensor_type;location;lat;lon;timestamp;temperature;humidity
6333;DHT22;3199;49.102;8.856;2023-07-24T00:00:36;19.10;99.90
6333;DHT22;3199;49.102;8.856;2023-07-24T00:03:02;19.10;99.90
6333;DHT22;3199;49.102;8.856;2023-07-24T00:05:28;19.10;99.90
6333;DHT22;3199;49.102;8.856;2023-07-24T00:07:53;19.10;99.90
6333;DHT22;3199;49.102;8.856;2023-07-24T00:10:19;19.10;99.90
6333;DHT22;3199;49.102;8.856;2023-07-24T00:12:44;19.00;99.90
6333;DHT22;3199;49.102;8.856;2023-07-24T00:15:10;19.00;99.90
6333;DHT22;3199;49.102;8.856;2023-07-24T00:17:35;19.00;99.90
6333;DHT22;3199;49.102;8.856;2023-07-24T00:20:01;18.90;99.90
6333;DHT22;3199;49.102;8.856;2023-07-24T00:22:26;18.90;99.90
6333;DHT22;3199;49.102;8.856;2023-07-24T00:24:52;18.90;99.90
6333;DHT22;3199;49.102;8.856;2023-07-24T00:27:17;18.90;99.90
6333;DHT22;3199;49.102;8.856;2023-07-24T00:29:43;18.80;99.90
6333;DHT22;3199;49.102;8.856;2023-07-24T00:32:08;18.80;99.90
6333;DHT22;3199;49.102;8.856;2023-07-24T00:34:34;18.80;99.90
6333;DHT22;3199;49.102;8.856;2023-07-24T00:36:59;18.80;99.90
6333;DHT22;3199;49.102;8.856;2023-07-24T00:39:25;18.70;99.90
6333;DHT22;3199;49.102;8.856;2023-07-24T00:41:53;18.70;99.90
6333;DHT22;3199;49.102;8.856;2023-07-24T00:44:19;18.70;99.90
6333;DHT22;3199;49.102;8.856;2023-07-24T00:46:45;18.70;99.90
6333;DHT22;3199;49.102;8.856;2023-07-24T00:49:10;18.60;99.90
6333;DHT22;3199;49.102;8.856;2023-07-24T00:51:36;18.60;99.90
6333;DHT22;3199;49.102;8.856;2023-07-24T00:54:02;18.70;99.90
6333;DHT22;3199;49.102;8.856;2023-07-24T00:56:30;18.60;99.90
6333;DHT22;3199;49.102;8.856;2023-07-24T00:58:57;18.60;99.90
6333;DHT22;3199;49.102;8.856;2023-07-24T01:01:23;18.50;99.90
6333;DHT22;3199;49.102;8.856;2023-07-24T01:03:49;18.50;99.90
6333;DHT22;3199;49.102;8.856;2023-07-24T01:06:15;18.50;99.90
6333;DHT22;3199;49.102;8.856;2023-07-24T01:08:40;18.50;99.90
6333;DHT22;3199;49.102;8.856;2023-07-24T01:11:18;18.40;99.90
6333;DHT22;3199;49.102;8.856;2023-07-24T01:13:58;18.40;99.90
6333;DHT22;3199;49.102;8.856;2023-07-24T01:16:33;18.40;99.90
6333;DHT22;3199;49.102;8.856;2023-07-24T01:19:01;18.30;99.90
6333;DHT22;3199;49.102;8.856;2023-07-24T01:21:36;18.30;99.90
6333;DHT22;3199;49.102;8.856;2023-07-24T01:26:35;18.30;99.90
6333;DHT22;3199;49.102;8.856;2023-07-24T01:29:01;18.20;99.90
6333;DHT22;3199;49.102;8.856;2023-07-24T01:31:26;18.20;99.90
6333;DHT22;3199;49.102;8.856;2023-07-24T01:33:52;18.20;99.90
6333;DHT22;3199;49.102;8.856;2023-07-24T01:36:18;18.20;99.90
6333;DHT22;3199;49.102;8.856;2023-07-24T01:38:45;18.20;99.90
6333;DHT22;3199;49.102;8.856;2023-07-24T01:41:12;18.20;99.90
6333;DHT22;3199;49.102;8.856;2023-07-24T01:43:38;18.20;99.90
6333;DHT22;3199;49.102;8.856;2023-07-24T01:46:03;18.20;99.90
6333;DHT22;3199;49.102;8.856;2023-07-24T01:48:29;18.10;99.90
6333;DHT22;3199;49.102;8.856;2023-07-24T01:50:54;18.10;99.90
6333;DHT22;3199;49.102;8.856;2023-07-24T01:53:20;18.10;99.90
6333;DHT22;3199;49.102;8.856;2023-07-24T01:55:45;18.10;99.90
6333;DHT22;3199;49.102;8.856;2023-07-24T01:58:11;18.10;99.90
6333;DHT22;3199;49.102;8.856;2023-07-24T02:00:36;18.20;99.90
6333;DHT22;3199;49.102;8.856;2023-07-24T02:03:02;18.10;99.90
6333;DHT22;3199;49.102;8.856;2023-07-24T02:05:27;18.10;99.90
6333;DHT22;3199;49.102;8.856;2023-07-24T02:07:53;18.10;99.90
6333;DHT22;3199;49.102;8.856;2023-07-24T02:10:18;18.20;99.90
6333;DHT22;3199;49.102;8.856;2023-07-24T02:12:44;18.20;99.90
6333;DHT22;3199;49.102;8.856;2023-07-24T02:15:09;18.10;99.90
6333;DHT22;3199;49.102;8.856;2023-07-24T02:17:35;18.20;99.90
6333;DHT22;3199;49.102;8.856;2023-07-24T02:20:01;18.10;99.90
6333;DHT22;3199;49.102;8.856;2023-07-24T02:22:26;18.10;99.90
6333;DHT22;3199;49.102;8.856;2023-07-24T02:24:52;18.00;99.90
6333;DHT22;3199;49.102;8.856;2023-07-24T02:27:31;18.00;99.90
6333;DHT22;3199;49.102;8.856;2023-07-24T02:29:59;18.00;99.90
6333;DHT22;3199;49.102;8.856;2023-07-24T02:32:25;17.90;99.90
6333;DHT22;3199;49.102;8.856;2023-07-24T02:34:51;17.90;99.90
6333;DHT22;3199;49.102;8.856;2023-07-24T02:37:17;17.90;99.90
6333;DHT22;3199;49.102;8.856;2023-07-24T02:39:42;17.80;99.90
6333;DHT22;3199;49.102;8.856;2023-07-24T02:42:08;17.80;99.90
6333;DHT22;3199;49.102;8.856;2023-07-24T02:44:36;17.80;99.90
6333;DHT22;3199;49.102;8.856;2023-07-24T02:47:02;17.80;99.90
6333;DHT22;3199;49.102;8.856;2023-07-24T02:49:28;17.70;99.90
6333;DHT22;3199;49.102;8.856;2023-07-24T02:51:54;17.70;99.90
6333;DHT22;3199;49.102;8.856;2023-07-24T02:54:19;17.70;99.90
6333;DHT22;3199;49.102;8.856;2023-07-24T02:56:45;17.70;99.90
6333;DHT22;3199;49.102;8.856;2023-07-24T02:59:10;17.70;99.90
6333;DHT22;3199;49.102;8.856;2023-07-24T03:01:36;17.70;99.90
6333;DHT22;3199;49.102;8.856;2023-07-24T03:04:02;17.70;99.90
6333;DHT22;3199;49.102;8.856;2023-07-24T03:06:28;17.70;99.90
6333;DHT22;3199;49.102;8.856;2023-07-24T03:08:53;17.70;99.90
6333;DHT22;3199;49.102;8.856;2023-07-24T03:11:19;17.60;99.90
6333;DHT22;3199;49.102;8.856;2023-07-24T03:13:44;17.60;99.90
6333;DHT22;3199;49.102;8.856;2023-07-24T03:16:10;17.60;99.90
6333;DHT22;3199;49.102;8.856;2023-07-24T03:18:35;17.60;99.90
6333;DHT22;3199;49.102;8.856;2023-07-24T03:21:01;17.50;99.90
6333;DHT22;3199;49.102;8.856;2023-07-24T03:23:28;17.50;99.90
6333;DHT22;3199;49.102;8.856;2023-07-24T03:25:53;17.50;99.90
6333;DHT22;3199;49.102;8.856;2023-07-24T03:28:19;17.50;99.90
6333;DHT22;3199;49.102;8.856;2023-07-24T03:30:44;17.50;99.90
6333;DHT22;3199;49.102;8.856;2023-07-24T03:33:10;17.50;99.90
6333;DHT22;3199;49.102;8.856;2023-07-24T03:35:37;17.50;99.90
6333;DHT22;3199;49.102;8.856;2023-07-24T03:38:04;17.40;99.90
6333;DHT22;3199;49.102;8.856;2023-07-24T03:40:29;17.40;99.90
6333;DHT22;3199;49.102;8.856;2023-07-24T03:42:55;17.40;99.90
6333;DHT22;3199;49.102;8.856;2023-07-24T03:45:20;17.40;99.90
6333;DHT22;3199;49.102;8.856;2023-07-24T03:47:46;17.40;99.90
6333;DHT22;3199;49.102;8.856;2023-07-24T03:50:11;17.40;99.90
6333;DHT22;3199;49.102;8.856;2023-07-24T03:52:37;17.40;99.90
6333;DHT22;3199;49.102;8.856;2023-07-24T03:55:03;17.50;99.90
6333;DHT22;3199;49.102;8.856;2023-07-24T03:57:29;17.50;99.90
6333;DHT22;3199;49.102;8.856;2023-07-24T03:59:54;17.50;99.90
6333;DHT22;3199;49.102;8.856;2023-07-24T04:02:20;17.50;99.90
6333;DHT22;3199;49.102;8.856;2023-07-24T04:04:45;17.50;99.90
6333;DHT22;3199;49.102;8.856;2023-07-24T04:07:11;17.60;99.90
6333;DHT22;3199;49.102;8.856;2023-07-24T04:09:36;17.60;99.90
6333;DHT22;3199;49.102;8.856;2023-07-24T04:12:02;17.60;99.90
6333;DHT22;3199;49.102;8.856;2023-07-24T04:14:27;17.70;99.90
6333;DHT22;3199;49.102;8.856;2023-07-24T04:16:53;17.80;99.90
6333;DHT22;3199;49.102;8.856;2023-07-24T04:19:20;18.00;99.90
6333;DHT22;3199;49.102;8.856;2023-07-24T04:21:46;18.10;99.90
6333;DHT22;3199;49.102;8.856;2023-07-24T04:24:11;18.20;99.90
6333;DHT22;3199;49.102;8.856;2023-07-24T04:26:37;18.30;99.90
6333;DHT22;3199;49.102;8.856;2023-07-24T04:29:02;18.30;99.90
6333;DHT22;3199;49.102;8.856;2023-07-24T04:31:28;18.30;99.90
6333;DHT22;3199;49.102;8.856;2023-07-24T04:33:53;18.30;99.90
6333;DHT22;3199;49.102;8.856;2023-07-24T04:36:19;18.30;99.90
6333;DHT22;3199;49.102;8.856;2023-07-24T04:38:44;18.40;99.90
6333;DHT22;3199;49.102;8.856;2023-07-24T04:41:12;18.40;99.90
6333;DHT22;3199;49.102;8.856;2023-07-24T04:43:37;18.40;99.90
6333;DHT22;3199;49.102;8.856;2023-07-24T04:46:03;18.40;99.90
6333;DHT22;3199;49.102;8.856;2023-07-24T04:48:29;18.40;99.90
6333;DHT22;3199;49.102;8.856;2023-07-24T04:50:56;18.40;99.90
6333;DHT22;3199;49.102;8.856;2023-07-24T04:53:22;18.50;99.90
6333;DHT22;3199;49.102;8.856;2023-07-24T04:55:48;18.60;99.90
6333;DHT22;3199;49.102;8.856;2023-07-24T04:58:13;18.60;99.90
6333;DHT22;3199;49.102;8.856;2023-07-24T05:00:39;18.80;99.90
6333;DHT22;3199;49.102;8.856;2023-07-24T05:03:04;18.80;99.90
6333;DHT22;3199;49.102;8.856;2023-07-24T05:05:31;18.90;99.90
6333;DHT22;3199;49.102;8.856;2023-07-24T05:07:57;19.00;99.90
6333;DHT22;3199;49.102;8.856;2023-07-24T05:10:23;19.10;99.90
6333;DHT22;3199;49.102;8.856;2023-07-24T05:12:48;19.20;99.90
6333;DHT22;3199;49.102;8.856;2023-07-24T05:15:14;19.20;99.90
6333;DHT22;3199;49.102;8.856;2023-07-24T05:17:42;19.20;99.90
6333;DHT22;3199;49.102;8.856;2023-07-24T05:20:09;19.30;99.90
6333;DHT22;3199;49.102;8.856;2023-07-24T05:22:34;19.20;99.90
6333;DHT22;3199;49.102;8.856;2023-07-24T05:25:00;19.20;99.90
6333;DHT22;3199;49.102;8.856;2023-07-24T05:27:25;19.20;99.90
6333;DHT22;3199;49.102;8.856;2023-07-24T05:29:51;19.20;99.90
6333;DHT22;3199;49.102;8.856;2023-07-24T05:32:17;19.20;99.90
6333;DHT22;3199;49.102;8.856;2023-07-24T05:34:42;19.20;99.90
6333;DHT22;3199;49.102;8.856;2023-07-24T05:37:08;19.30;99.90
6333;DHT22;3199;49.102;8.856;2023-07-24T05:39:33;19.30;99.90
6333;DHT22;3199;49.102;8.856;2023-07-24T05:41:59;19.30;99.90
6333;DHT22;3199;49.102;8.856;2023-07-24T05:44:24;19.40;99.90
6333;DHT22;3199;49.102;8.856;2023-07-24T05:46:50;19.40;99.90
6333;DHT22;3199;49.102;8.856;2023-07-24T05:49:16;19.40;99.90
6333;DHT22;3199;49.102;8.856;2023-07-24T05:51:41;19.40;99.90
6333;DHT22;3199;49.102;8.856;2023-07-24T05:54:07;19.50;99.90
6333;DHT22;3199;49.102;8.856;2023-07-24T05:56:32;19.50;99.90
6333;DHT22;3199;49.102;8.856;2023-07-24T05:58:58;19.60;99.90
6333;DHT22;3199;49.102;8.856;2023-07-24T06:01:23;19.60;99.90
6333;DHT22;3199;49.102;8.856;2023-07-24T06:03:49;19.60;99.90
6333;DHT22;3199;49.102;8.856;2023-07-24T06:06:14;19.60;99.90
6333;DHT22;3199;49.102;8.856;2023-07-24T06:08:40;19.60;99.90
6333;DHT22;3199;49.102;8.856;2023-07-24T06:11:05;19.70;99.90
6333;DHT22;3199;49.102;8.856;2023-07-24T06:13:31;19.70;99.90
6333;DHT22;3199;49.102;8.856;2023-07-24T06:15:56;19.70;99.90
6333;DHT22;3199;49.102;8.856;2023-07-24T06:18:22;19.80;99.90
6333;DHT22;3199;49.102;8.856;2023-07-24T06:20:52;19.90;99.90
6333;DHT22;3199;49.102;8.856;2023-07-24T06:23:17;19.90;99.90
6333;DHT22;3199;49.102;8.856;2023-07-24T06:25:43;19.90;99.90
6333;DHT22;3199;49.102;8.856;2023-07-24T06:28:08;20.00;99.90
6333;DHT22;3199;49.102;8.856;2023-07-24T06:30:34;20.00;99.90
6333;DHT22;3199;49.102;8.856;2023-07-24T06:32:59;20.10;99.90
6333;DHT22;3199;49.102;8.856;2023-07-24T06:35:25;20.10;99.90
6333;DHT22;3199;49.102;8.856;2023-07-24T06:37:50;20.10;99.90
6333;DHT22;3199;49.102;8.856;2023-07-24T06:40:16;20.20;99.90
6333;DHT22;3199;49.102;8.856;2023-07-24T06:42:41;20.30;99.90
6333;DHT22;3199;49.102;8.856;2023-07-24T06:45:07;20.40;99.90
6333;DHT22;3199;49.102;8.856;2023-07-24T06:47:33;20.40;99.90
6333;DHT22;3199;49.102;8.856;2023-07-24T06:49:58;20.50;99.90
6333;DHT22;3199;49.102;8.856;2023-07-24T06:52:24;20.60;99.90
6333;DHT22;3199;49.102;8.856;2023-07-24T06:54:49;20.70;99.90
6333;DHT22;3199;49.102;8.856;2023-07-24T06:57:15;20.90;99.90
6333;DHT22;3199;49.102;8.856;2023-07-24T06:59:40;21.00;99.90
6333;DHT22;3199;49.102;8.856;2023-07-24T07:02:06;21.10;99.90
6333;DHT22;3199;49.102;8.856;2023-07-24T07:04:31;21.20;99.90
6333;DHT22;3199;49.102;8.856;2023-07-24T07:06:57;21.30;99.90
6333;DHT22;3199;49.102;8.856;2023-07-24T07:09:22;21.30;99.90
6333;DHT22;3199;49.102;8.856;2023-07-24T07:11:48;21.30;99.90
6333;DHT22;3199;49.102;8.856;2023-07-24T07:14:13;21.20;99.90
6333;DHT22;3199;49.102;8.856;2023-07-24T07:16:39;21.30;99.90
6333;DHT22;3199;49.102;8.856;2023-07-24T07:19:04;21.40;99.90
6333;DHT22;3199;49.102;8.856;2023-07-24T07:21:30;21.70;99.90
6333;DHT22;3199;49.102;8.856;2023-07-24T07:23:55;21.80;99.90
6333;DHT22;3199;49.102;8.856;2023-07-24T07:26:21;21.90;99.90
6333;DHT22;3199;49.102;8.856;2023-07-24T07:28:47;21.90;99.90
6333;DHT22;3199;49.102;8.856;2023-07-24T07:31:13;21.80;99.90
6333;DHT22;3199;49.102;8.856;2023-07-24T07:33:39;21.80;99.90
6333;DHT22;3199;49.102;8.856;2023-07-24T07:36:04;21.70;99.90
6333;DHT22;3199;49.102;8.856;2023-07-24T07:38:31;21.50;99.90
6333;DHT22;3199;49.102;8.856;2023-07-24T07:40:57;21.50;99.90
6333;DHT22;3199;49.102;8.856;2023-07-24T07:43:22;21.40;99.90
6333;DHT22;3199;49.102;8.856;2023-07-24T07:45:48;21.20;99.90
6333;DHT22;3199;49.102;8.856;2023-07-24T07:48:14;21.10;99.90
6333;DHT22;3199;49.102;8.856;2023-07-24T07:50:39;21.00;99.90
6333;DHT22;3199;49.102;8.856;2023-07-24T07:53:05;20.90;99.90
6333;DHT22;3199;49.102;8.856;2023-07-24T07:55:31;20.90;99.90
6333;DHT22;3199;49.102;8.856;2023-07-24T07:57:56;20.90;99.90
6333;DHT22;3199;49.102;8.856;2023-07-24T08:00:22;20.90;99.90
6333;DHT22;3199;49.102;8.856;2023-07-24T08:02:48;20.80;99.90
6333;DHT22;3199;49.102;8.856;2023-07-24T08:05:13;20.80;99.90
6333;DHT22;3199;49.102;8.856;2023-07-24T08:07:39;20.80;99.90
6333;DHT22;3199;49.102;8.856;2023-07-24T08:10:05;20.70;99.90
6333;DHT22;3199;49.102;8.856;2023-07-24T08:12:31;20.70;99.90
6333;DHT22;3199;49.102;8.856;2023-07-24T08:14:57;20.50;99.90
6333;DHT22;3199;49.102;8.856;2023-07-24T08:17:22;20.50;99.90
6333;DHT22;3199;49.102;8.856;2023-07-24T08:19:48;20.50;99.90
6333;DHT22;3199;49.102;8.856;2023-07-24T08:22:13;20.60;99.90
6333;DHT22;3199;49.102;8.856;2023-07-24T08:24:39;20.70;99.90
6333;DHT22;3199;49.102;8.856;2023-07-24T08:27:05;20.70;99.90
6333;DHT22;3199;49.102;8.856;2023-07-24T08:29:30;20.90;99.90
6333;DHT22;3199;49.102;8.856;2023-07-24T08:31:56;21.00;99.90
6333;DHT22;3199;49.102;8.856;2023-07-24T08:34:22;21.00;99.90
6333;DHT22;3199;49.102;8.856;2023-07-24T08:36:47;21.10;99.90
6333;DHT22;3199;49.102;8.856;2023-07-24T08:39:13;21.10;99.90
6333;DHT22;3199;49.102;8.856;2023-07-24T08:41:38;21.20;99.90
6333;DHT22;3199;49.102;8.856;2023-07-24T08:44:07;21.20;99.90
6333;DHT22;3199;49.102;8.856;2023-07-24T08:46:38;21.30;99.90
6333;DHT22;3199;49.102;8.856;2023-07-24T08:49:06;21.40;99.90
6333;DHT22;3199;49.102;8.856;2023-07-24T08:51:37;21.50;99.90
6333;DHT22;3199;49.102;8.856;2023-07-24T08:54:03;21.60;99.90
6333;DHT22;3199;49.102;8.856;2023-07-24T08:56:29;21.60;99.90
6333;DHT22;3199;49.102;8.856;2023-07-24T08:58:55;21.70;99.90
6333;DHT22;3199;49.102;8.856;2023-07-24T09:01:21;21.90;99.90
6333;DHT22;3199;49.102;8.856;2023-07-24T09:03:46;21.90;99.90
6333;DHT22;3199;49.102;8.856;2023-07-24T09:06:12;22.00;99.90
6333;DHT22;3199;49.102;8.856;2023-07-24T09:08:38;22.10;99.90
6333;DHT22;3199;49.102;8.856;2023-07-24T09:11:05;22.30;99.90
6333;DHT22;3199;49.102;8.856;2023-07-24T09:13:32;22.50;99.90
6333;DHT22;3199;49.102;8.856;2023-07-24T09:15:58;22.70;99.90
6333;DHT22;3199;49.102;8.856;2023-07-24T09:18:25;22.90;99.90
6333;DHT22;3199;49.102;8.856;2023-07-24T09:20:50;23.00;99.90
6333;DHT22;3199;49.102;8.856;2023-07-24T09:23:26;23.20;99.90
6333;DHT22;3199;49.102;8.856;2023-07-24T09:25:52;23.50;99.90
6333;DHT22;3199;49.102;8.856;2023-07-24T09:28:18;23.80;99.90
6333;DHT22;3199;49.102;8.856;2023-07-24T09:30:57;24.10;99.90
6333;DHT22;3199;49.102;8.856;2023-07-24T09:33:33;24.60;99.90
6333;DHT22;3199;49.102;8.856;2023-07-24T09:36:00;25.10;99.90
6333;DHT22;3199;49.102;8.856;2023-07-24T09:38:26;25.50;99.90
6333;DHT22;3199;49.102;8.856;2023-07-24T09:40:52;25.70;99.90
6333;DHT22;3199;49.102;8.856;2023-07-24T09:43:23;25.80;99.90
6333;DHT22;3199;49.102;8.856;2023-07-24T09:45:50;25.60;99.90
6333;DHT22;3199;49.102;8.856;2023-07-24T09:48:17;25.50;99.90
6333;DHT22;3199;49.102;8.856;2023-07-24T09:50:45;25.20;99.90
6333;DHT22;3199;49.102;8.856;2023-07-24T09:53:47;25.00;99.90
6333;DHT22;3199;49.102;8.856;2023-07-24T09:56:15;25.00;99.90
6333;DHT22;3199;49.102;8.856;2023-07-24T09:58:44;24.80;99.90
6333;DHT22;3199;49.102;8.856;2023-07-24T10:01:10;24.60;99.90
6333;DHT22;3199;49.102;8.856;2023-07-24T10:03:45;24.30;99.90
6333;DHT22;3199;49.102;8.856;2023-07-24T10:06:11;24.10;99.90
6333;DHT22;3199;49.102;8.856;2023-07-24T10:08:39;23.90;99.90
6333;DHT22;3199;49.102;8.856;2023-07-24T10:11:05;23.70;99.90
6333;DHT22;3199;49.102;8.856;2023-07-24T10:13:31;23.60;99.90
6333;DHT22;3199;49.102;8.856;2023-07-24T10:15:57;23.40;99.90
6333;DHT22;3199;49.102;8.856;2023-07-24T10:18:29;23.20;99.90
6333;DHT22;3199;49.102;8.856;2023-07-24T10:21:02;23.10;99.90
6333;DHT22;3199;49.102;8.856;2023-07-24T10:23:28;22.90;99.90
6333;DHT22;3199;49.102;8.856;2023-07-24T10:25:53;22.90;99.90
6333;DHT22;3199;49.102;8.856;2023-07-24T10:28:19;22.80;99.90
6333;DHT22;3199;49.102;8.856;2023-07-24T10:30:45;22.70;99.90
6333;DHT22;3199;49.102;8.856;2023-07-24T10:33:20;22.60;99.90
6333;DHT22;3199;49.102;8.856;2023-07-24T10:35:53;22.50;99.90
6333;DHT22;3199;49.102;8.856;2023-07-24T10:38:19;22.50;99.90
6333;DHT22;3199;49.102;8.856;2023-07-24T10:40:47;22.50;99.90
6333;DHT22;3199;49.102;8.856;2023-07-24T10:43:19;22.40;99.90
6333;DHT22;3199;49.102;8.856;2023-07-24T10:45:53;22.40;99.90
6333;DHT22;3199;49.102;8.856;2023-07-24T10:48:21;22.40;99.90
6333;DHT22;3199;49.102;8.856;2023-07-24T10:50:48;22.40;99.90
6333;DHT22;3199;49.102;8.856;2023-07-24T10:53:16;22.40;99.90
6333;DHT22;3199;49.102;8.856;2023-07-24T10:55:46;22.40;99.90
6333;DHT22;3199;49.102;8.856;2023-07-24T10:58:15;22.30;99.90
6333;DHT22;3199;49.102;8.856;2023-07-24T11:00:42;22.30;99.90
6333;DHT22;3199;49.102;8.856;2023-07-24T11:03:12;22.20;99.90
6333;DHT22;3199;49.102;8.856;2023-07-24T11:05:42;22.10;99.90
6333;DHT22;3199;49.102;8.856;2023-07-24T11:08:13;22.10;99.90
6333;DHT22;3199;49.102;8.856;2023-07-24T11:10:52;22.10;99.90
6333;DHT22;3199;49.102;8.856;2023-07-24T11:13:22;22.20;99.90
6333;DHT22;3199;49.102;8.856;2023-07-24T11:15:49;22.20;99.90
6333;DHT22;3199;49.102;8.856;2023-07-24T11:18:15;22.30;99.90
6333;DHT22;3199;49.102;8.856;2023-07-24T11:20:45;22.40;99.90
6333;DHT22;3199;49.102;8.856;2023-07-24T11:23:11;22.50;99.90
6333;DHT22;3199;49.102;8.856;2023-07-24T11:25:38;22.70;99.90
6333;DHT22;3199;49.102;8.856;2023-07-24T11:28:11;22.90;99.90
6333;DHT22;3199;49.102;8.856;2023-07-24T11:30:38;23.10;99.90
6333;DHT22;3199;49.102;8.856;2023-07-24T11:33:05;23.30;99.90
6333;DHT22;3199;49.102;8.856;2023-07-24T11:35:31;23.40;99.90
6333;DHT22;3199;49.102;8.856;2023-07-24T11:37:57;23.50;99.90
6333;DHT22;3199;49.102;8.856;2023-07-24T11:40:34;23.70;99.90
6333;DHT22;3199;49.102;8.856;2023-07-24T11:43:01;23.70;99.90
6333;DHT22;3199;49.102;8.856;2023-07-24T11:45:27;23.80;99.90
6333;DHT22;3199;49.102;8.856;2023-07-24T11:47:53;23.80;99.90
6333;DHT22;3199;49.102;8.856;2023-07-24T11:50:19;23.90;99.90
6333;DHT22;3199;49.102;8.856;2023-07-24T11:52:47;24.10;99.90
6333;DHT22;3199;49.102;8.856;2023-07-24T11:55:17;24.10;99.90
6333;DHT22;3199;49.102;8.856;2023-07-24T11:57:43;24.10;99.90
6333;DHT22;3199;49.102;8.856;2023-07-24T12:00:27;24.20;99.90
6333;DHT22;3199;49.102;8.856;2023-07-24T12:02:58;24.20;99.90
6333;DHT22;3199;49.102;8.856;2023-07-24T12:05:24;24.20;99.90
6333;DHT22;3199;49.102;8.856;2023-07-24T12:07:49;24.30;99.90
6333;DHT22;3199;49.102;8.856;2023-07-24T12:10:26;24.20;99.90
6333;DHT22;3199;49.102;8.856;2023-07-24T12:12:53;24.10;99.90
6333;DHT22;3199;49.102;8.856;2023-07-24T12:15:18;24.00;99.90
6333;DHT22;3199;49.102;8.856;2023-07-24T12:17:44;23.90;99.90
6333;DHT22;3199;49.102;8.856;2023-07-24T12:20:09;23.90;99.90
6333;DHT22;3199;49.102;8.856;2023-07-24T12:22:37;24.00;99.90
6333;DHT22;3199;49.102;8.856;2023-07-24T12:25:03;24.20;99.90
6333;DHT22;3199;49.102;8.856;2023-07-24T12:27:29;24.30;99.90
6333;DHT22;3199;49.102;8.856;2023-07-24T12:29:54;24.40;99.90
6333;DHT22;3199;49.102;8.856;2023-07-24T12:32:20;24.10;99.90
6333;DHT22;3199;49.102;8.856;2023-07-24T12:34:48;23.90;99.90
6333;DHT22;3199;49.102;8.856;2023-07-24T12:37:13;23.80;99.90
6333;DHT22;3199;49.102;8.856;2023-07-24T12:39:39;23.90;99.90
6333;DHT22;3199;49.102;8.856;2023-07-24T12:42:05;24.00;99.90
6333;DHT22;3199;49.102;8.856;2023-07-24T12:44:30;24.10;99.90
6333;DHT22;3199;49.102;8.856;2023-07-24T12:46:56;24.30;99.90
6333;DHT22;3199;49.102;8.856;2023-07-24T12:49:21;24.40;99.90
6333;DHT22;3199;49.102;8.856;2023-07-24T12:51:47;24.60;99.90
6333;DHT22;3199;49.102;8.856;2023-07-24T12:54:12;24.90;99.90
6333;DHT22;3199;49.102;8.856;2023-07-24T12:56:38;25.00;99.90
6333;DHT22;3199;49.102;8.856;2023-07-24T12:59:04;25.20;99.90
6333;DHT22;3199;49.102;8.856;2023-07-24T13:01:29;25.20;99.90
6333;DHT22;3199;49.102;8.856;2023-07-24T13:03:55;25.40;99.90
6333;DHT22;3199;49.102;8.856;2023-07-24T13:06:21;25.60;99.90
6333;DHT22;3199;49.102;8.856;2023-07-24T13:08:47;25.60;99.90
6333;DHT22;3199;49.102;8.856;2023-07-24T13:11:13;25.60;99.90
6333;DHT22;3199;49.102;8.856;2023-07-24T13:13:38;25.50;99.70
6333;DHT22;3199;49.102;8.856;2023-07-24T13:16:04;25.50;98.70
6333;DHT22;3199;49.102;8.856;2023-07-24T13:18:29;25.20;98.80
6333;DHT22;3199;49.102;8.856;2023-07-24T13:20:56;25.20;99.50
6333;DHT22;3199;49.102;8.856;2023-07-24T13:23:22;25.00;99.10
6333;DHT22;3199;49.102;8.856;2023-07-24T13:25:47;24.90;99.80
6333;DHT22;3199;49.102;8.856;2023-07-24T13:28:13;24.90;99.30
6333;DHT22;3199;49.102;8.856;2023-07-24T13:30:38;24.90;99.20
6333;DHT22;3199;49.102;8.856;2023-07-24T13:33:04;24.80;99.20
6333;DHT22;3199;49.102;8.856;2023-07-24T13:35:29;24.80;98.80
6333;DHT22;3199;49.102;8.856;2023-07-24T13:37:55;24.70;98.50
6333;DHT22;3199;49.102;8.856;2023-07-24T13:40:20;24.70;98.60
6333;DHT22;3199;49.102;8.856;2023-07-24T13:42:46;24.70;98.20
6333;DHT22;3199;49.102;8.856;2023-07-24T13:45:11;24.70;99.00
6333;DHT22;3199;49.102;8.856;2023-07-24T13:47:37;24.80;99.10
6333;DHT22;3199;49.102;8.856;2023-07-24T13:50:02;24.80;98.80
6333;DHT22;3199;49.102;8.856;2023-07-24T13:52:29;24.90;98.40
6333;DHT22;3199;49.102;8.856;2023-07-24T13:54:55;24.90;98.60
6333;DHT22;3199;49.102;8.856;2023-07-24T13:57:20;25.10;98.40
6333;DHT22;3199;49.102;8.856;2023-07-24T13:59:47;25.10;97.60
6333;DHT22;3199;49.102;8.856;2023-07-24T14:02:12;25.00;97.10
6333;DHT22;3199;49.102;8.856;2023-07-24T14:04:38;25.00;97.10
6333;DHT22;3199;49.102;8.856;2023-07-24T14:07:03;24.90;97.30
6333;DHT22;3199;49.102;8.856;2023-07-24T14:09:29;24.90;97.30
6333;DHT22;3199;49.102;8.856;2023-07-24T14:11:56;24.80;96.50
6333;DHT22;3199;49.102;8.856;2023-07-24T14:14:22;24.90;97.00
6333;DHT22;3199;49.102;8.856;2023-07-24T14:16:49;24.90;96.90
6333;DHT22;3199;49.102;8.856;2023-07-24T14:19:14;25.00;96.70
6333;DHT22;3199;49.102;8.856;2023-07-24T14:21:40;25.20;96.70
6333;DHT22;3199;49.102;8.856;2023-07-24T14:24:06;25.40;96.00
6333;DHT22;3199;49.102;8.856;2023-07-24T14:26:32;25.40;95.80
6333;DHT22;3199;49.102;8.856;2023-07-24T14:28:58;25.30;96.20
6333;DHT22;3199;49.102;8.856;2023-07-24T14:31:23;25.30;96.20
6333;DHT22;3199;49.102;8.856;2023-07-24T14:33:50;25.20;96.10
6333;DHT22;3199;49.102;8.856;2023-07-24T14:36:15;25.10;95.80
6333;DHT22;3199;49.102;8.856;2023-07-24T14:38:41;25.10;95.90
6333;DHT22;3199;49.102;8.856;2023-07-24T14:41:07;25.20;95.30
6333;DHT22;3199;49.102;8.856;2023-07-24T14:43:32;25.10;95.60
6333;DHT22;3199;49.102;8.856;2023-07-24T14:45:58;25.20;95.10
6333;DHT22;3199;49.102;8.856;2023-07-24T14:48:23;25.20;95.70
6333;DHT22;3199;49.102;8.856;2023-07-24T14:50:49;25.30;95.10
6333;DHT22;3199;49.102;8.856;2023-07-24T14:53:14;25.30;95.20
6333;DHT22;3199;49.102;8.856;2023-07-24T14:55:40;25.30;95.40
6333;DHT22;3199;49.102;8.856;2023-07-24T14:58:05;25.30;94.80
6333;DHT22;3199;49.102;8.856;2023-07-24T15:00:32;25.30;95.00
6333;DHT22;3199;49.102;8.856;2023-07-24T15:02:58;25.30;94.90
6333;DHT22;3199;49.102;8.856;2023-07-24T15:05:23;25.10;94.60
6333;DHT22;3199;49.102;8.856;2023-07-24T15:07:49;25.10;95.10
6333;DHT22;3199;49.102;8.856;2023-07-24T15:10:15;25.00;95.30
6333;DHT22;3199;49.102;8.856;2023-07-24T15:12:40;24.90;95.30
6333;DHT22;3199;49.102;8.856;2023-07-24T15:15:06;24.80;95.40
6333;DHT22;3199;49.102;8.856;2023-07-24T15:17:32;24.70;95.40
6333;DHT22;3199;49.102;8.856;2023-07-24T15:19:57;24.50;95.30
6333;DHT22;3199;49.102;8.856;2023-07-24T15:22:23;24.30;95.70
6333;DHT22;3199;49.102;8.856;2023-07-24T15:24:49;24.20;96.10
6333;DHT22;3199;49.102;8.856;2023-07-24T15:27:14;24.10;96.90
6333;DHT22;3199;49.102;8.856;2023-07-24T15:29:40;24.10;98.30
6333;DHT22;3199;49.102;8.856;2023-07-24T15:32:06;23.80;99.90
6333;DHT22;3199;49.102;8.856;2023-07-24T15:34:32;23.40;99.90
6333;DHT22;3199;49.102;8.856;2023-07-24T15:36:58;22.80;99.90
6333;DHT22;3199;49.102;8.856;2023-07-24T15:39:24;22.30;99.90
6333;DHT22;3199;49.102;8.856;2023-07-24T15:41:49;21.80;99.90
6333;DHT22;3199;49.102;8.856;2023-07-24T15:44:15;21.50;99.90
6333;DHT22;3199;49.102;8.856;2023-07-24T15:46:40;21.20;99.90
6333;DHT22;3199;49.102;8.856;2023-07-24T15:49:06;21.20;99.90
6333;DHT22;3199;49.102;8.856;2023-07-24T15:51:32;21.10;99.90
6333;DHT22;3199;49.102;8.856;2023-07-24T15:53:58;21.00;99.90
6333;DHT22;3199;49.102;8.856;2023-07-24T15:56:23;21.00;99.90
6333;DHT22;3199;49.102;8.856;2023-07-24T15:58:50;21.10;99.90